Terminal Aerodrome Forecast
Issued by NWS

Home | Current Version | Previous Version | Text Only | Print | Product List | Glossary On
Versions: 1 2 3 4 5 6 7 8 9 10 11 12 13 14 15 16 17
664
FTUS43 KDLH 060535
TAFBRD
TAF
KBRD 060535Z 0606/0706 22007KT P6SM SKC WS010/23030KT
     FM061600 24012G20KT P6SM BKN250
     FM062000 27015G25KT P6SM VCTS SCT110CB BKN250
     FM062200 31016G26KT P6SM VCTS SCT110CB BKN250
     FM070200 33013KT P6SM VCSH SCT110=

USA.gov is the U.S. government's official web portal to all federal, state and local government web resources and services.